Time;durP1;ratioP1;P1;durP2;ratioP2;P2;SDS_P1;SDS_P2;PMS_P1;PMS_P2;Temp;Humidity;BMP_temperature;BMP_pressure;BME280_temperature;BME280_humidity;BME280_pressure;Samples;Min_cycle;Max_cycle;Signal;HPM_P1;HPM_P2
2022/07/01 00:00:40;;;;;;;3.60;1.80;;;14.80;99.90;;;;;;5052171;28;20440;-70
2022/07/01 00:03:07;;;;;;;7.10;1.60;;;14.80;99.90;;;;;;5054319;28;20456;-69
2022/07/01 00:05:34;;;;;;;3.27;1.63;;;14.80;99.90;;;;;;5051526;28;20471;-70
2022/07/01 00:08:00;;;;;;;3.70;1.43;;;14.80;99.90;;;;;;5051302;28;20459;-69
2022/07/01 00:10:27;;;;;;;2.93;1.40;;;14.70;99.90;;;;;;5050721;28;20862;-70
2022/07/01 00:12:54;;;;;;;3.33;1.60;;;14.60;99.90;;;;;;5051274;28;20490;-69
2022/07/01 00:15:21;;;;;;;3.33;2.00;;;14.60;99.90;;;;;;5051049;28;20467;-69
2022/07/01 00:17:50;;;;;;;3.90;1.37;;;14.60;99.90;;;;;;5050978;28;20452;-70
2022/07/01 00:20:17;;;;;;;4.20;1.40;;;14.50;99.90;;;;;;5050839;28;20448;-70
2022/07/01 00:22:43;;;;;;;4.17;1.53;;;14.50;99.90;;;;;;5051199;28;20490;-70
2022/07/01 00:25:10;;;;;;;2.93;1.30;;;14.40;99.90;;;;;;5050734;28;20452;-70
2022/07/01 00:27:38;;;;;;;3.57;1.53;;;14.40;99.90;;;;;;5050706;28;20451;-68
2022/07/01 00:30:06;;;;;;;3.30;1.60;;;14.50;99.90;;;;;;5050525;28;20543;-70
2022/07/01 00:32:33;;;;;;;3.77;1.50;;;14.40;99.90;;;;;;5050585;28;20448;-70
2022/07/01 00:35:01;;;;;;;3.30;1.47;;;14.40;99.90;;;;;;5050936;28;20523;-70
2022/07/01 00:37:28;;;;;;;2.70;1.60;;;14.40;99.90;;;;;;5050713;28;20450;-69
2022/07/01 00:39:55;;;;;;;2.03;1.20;;;14.30;99.90;;;;;;5050333;28;20452;-69
2022/07/01 00:42:22;;;;;;;2.20;1.37;;;14.30;99.90;;;;;;5050408;28;20443;-70
2022/07/01 00:44:48;;;;;;;2.67;1.43;;;14.30;99.90;;;;;;5050543;28;20440;-70
2022/07/01 00:47:15;;;;;;;2.73;1.30;;;14.40;99.90;;;;;;5050286;28;20444;-70
2022/07/01 00:49:42;;;;;;;6.43;1.50;;;14.30;99.90;;;;;;5046512;28;20452;-70
2022/07/01 00:52:11;;;;;;;3.00;1.30;;;14.20;99.90;;;;;;5044735;28;20585;-69
2022/07/01 00:54:38;;;;;;;4.63;1.27;;;14.30;99.90;;;;;;5046363;28;20470;-70
2022/07/01 00:57:09;;;;;;;3.13;1.40;;;14.20;99.90;;;;;;5050223;28;20545;-69
2022/07/01 00:59:37;;;;;;;2.63;1.47;;;14.30;99.90;;;;;;5046409;28;20453;-69
2022/07/01 01:02:05;;;;;;;4.77;1.20;;;14.20;99.90;;;;;;5045536;28;20448;-70
2022/07/01 01:04:32;;;;;;;18.47;3.07;;;14.30;99.90;;;;;;5040984;28;20813;-70
2022/07/01 01:07:00;;;;;;;3.53;1.33;;;14.30;99.90;;;;;;5046919;28;20476;-67
2022/07/01 01:09:29;;;;;;;2.37;1.20;;;14.30;99.90;;;;;;5049779;28;20446;-67
2022/07/01 01:11:57;;;;;;;6.20;1.97;;;14.30;99.90;;;;;;5048462;28;21013;-67
2022/07/01 01:14:24;;;;;;;3.77;1.70;;;14.30;99.90;;;;;;5049755;28;20468;-70
2022/07/01 01:16:51;;;;;;;3.83;1.40;;;14.30;99.90;;;;;;5049869;28;21160;-69
2022/07/01 01:19:18;;;;;;;2.43;1.33;;;14.30;99.90;;;;;;5049733;28;20834;-69
2022/07/01 01:21:46;;;;;;;2.50;1.20;;;14.20;99.90;;;;;;5049660;28;20444;-69
2022/07/01 01:24:13;;;;;;;2.57;1.57;;;14.20;99.90;;;;;;5049571;28;20475;-69
2022/07/01 01:26:40;;;;;;;4.87;1.30;;;14.20;99.90;;;;;;5049764;28;20467;-69
2022/07/01 01:29:08;;;;;;;3.50;1.17;;;14.20;99.90;;;;;;5049884;28;20462;-70
2022/07/01 01:31:35;;;;;;;2.40;1.30;;;14.10;99.90;;;;;;5049299;28;20480;-68
2022/07/01 01:34:02;;;;;;;4.27;1.17;;;14.10;99.90;;;;;;5049736;28;20473;-70
2022/07/01 01:36:29;;;;;;;2.63;1.20;;;14.10;99.90;;;;;;5049549;28;20444;-69
2022/07/01 01:38:59;;;;;;;4.27;1.07;;;14.10;99.90;;;;;;5049625;28;20458;-69
2022/07/01 01:41:26;;;;;;;2.20;1.00;;;14.00;99.90;;;;;;5049490;28;20455;-69
2022/07/01 01:43:53;;;;;;;2.67;1.30;;;14.00;99.90;;;;;;5049698;28;20468;-69
2022/07/01 01:46:20;;;;;;;2.53;1.10;;;14.00;99.90;;;;;;5049720;28;20829;-69
2022/07/01 01:48:47;;;;;;;1.80;1.03;;;14.00;99.90;;;;;;5049808;28;20467;-69
2022/07/01 01:51:14;;;;;;;2.10;1.07;;;14.10;99.90;;;;;;5043025;28;20482;-69
2022/07/01 01:53:41;;;;;;;2.20;1.40;;;14.00;99.90;;;;;;5049641;28;20905;-69
2022/07/01 01:56:09;;;;;;;2.40;1.10;;;14.10;99.90;;;;;;5049689;28;20930;-69
2022/07/01 01:58:36;;;;;;;1.90;1.20;;;14.00;99.90;;;;;;5049681;28;20459;-69
2022/07/01 02:01:03;;;;;;;2.33;1.33;;;14.00;99.90;;;;;;5049481;28;20458;-69
2022/07/01 02:03:30;;;;;;;2.90;1.43;;;13.90;99.90;;;;;;5049281;28;20472;-69
2022/07/01 02:05:56;;;;;;;7.43;1.50;;;13.90;99.90;;;;;;5049555;28;20460;-70
2022/07/01 02:08:23;;;;;;;2.30;1.73;;;13.90;99.90;;;;;;5049264;28;20460;-70
2022/07/01 02:10:50;;;;;;;3.30;1.20;;;13.90;99.90;;;;;;5049392;28;20490;-69
2022/07/01 02:13:18;;;;;;;2.33;1.20;;;14.00;99.90;;;;;;5049375;28;20471;-69
2022/07/01 02:15:45;;;;;;;2.70;1.63;;;13.90;99.90;;;;;;5049462;28;20454;-69
2022/07/01 02:18:12;;;;;;;2.70;1.50;;;14.00;99.90;;;;;;5049045;28;20440;-69
2022/07/01 02:20:39;;;;;;;4.93;1.53;;;14.00;99.90;;;;;;5048929;28;20443;-69
2022/07/01 02:23:06;;;;;;;2.80;1.30;;;14.00;99.90;;;;;;5049796;28;20462;-69
2022/07/01 02:25:32;;;;;;;2.20;1.43;;;14.00;99.90;;;;;;5053312;28;20458;-70
2022/07/01 02:28:00;;;;;;;2.20;1.40;;;14.00;99.90;;;;;;5052922;28;20448;-69
2022/07/01 02:30:28;;;;;;;3.40;1.80;;;14.00;99.90;;;;;;5052544;28;20460;-69
2022/07/01 02:32:55;;;;;;;1.97;1.20;;;14.00;99.90;;;;;;5044577;28;20492;-70
2022/07/01 02:35:22;;;;;;;2.23;1.60;;;14.00;99.90;;;;;;5046393;28;20449;-70
2022/07/01 02:37:49;;;;;;;2.70;1.70;;;13.90;99.90;;;;;;5052976;28;20825;-69
2022/07/01 02:40:16;;;;;;;4.00;2.47;;;13.90;99.90;;;;;;5052307;28;20454;-69
2022/07/01 02:42:42;;;;;;;3.10;1.57;;;13.90;99.90;;;;;;5052331;28;20468;-70
2022/07/01 02:45:09;;;;;;;2.30;1.33;;;13.90;99.90;;;;;;5046156;28;20881;-70
2022/07/01 02:47:38;;;;;;;2.37;1.43;;;13.90;99.90;;;;;;5052504;28;20950;-69
2022/07/01 02:50:07;;;;;;;3.37;1.67;;;13.90;99.90;;;;;;5045543;28;20459;-69
2022/07/01 02:52:35;;;;;;;2.10;1.23;;;13.90;99.90;;;;;;5049064;28;20507;-69
2022/07/01 02:55:02;;;;;;;3.80;2.10;;;14.00;99.90;;;;;;5049038;28;20444;-69
2022/07/01 02:57:28;;;;;;;3.03;1.60;;;13.90;99.90;;;;;;5041862;28;20436;-69
2022/07/01 02:59:55;;;;;;;3.60;1.60;;;13.90;99.90;;;;;;5051832;28;20450;-69
2022/07/01 03:02:23;;;;;;;3.90;1.80;;;13.90;99.90;;;;;;5048952;28;21170;-69
2022/07/01 03:04:52;;;;;;;52.87;9.00;;;13.90;99.90;;;;;;5048941;28;20830;-69
2022/07/01 03:07:20;;;;;;;3.03;1.20;;;13.90;99.90;;;;;;5052129;28;20464;-69
2022/07/01 03:09:47;;;;;;;2.00;1.23;;;14.00;99.90;;;;;;5051903;28;20452;-69
2022/07/01 03:12:27;;;;;;;4.13;1.60;;;14.00;99.90;;;;;;5047376;28;20476;-68
2022/07/01 03:14:55;;;;;;;2.20;1.23;;;14.00;99.90;;;;;;5049053;28;20944;-69
2022/07/01 03:17:22;;;;;;;2.77;1.20;;;13.90;99.90;;;;;;5043078;28;20444;-68
2022/07/01 03:19:52;;;;;;;2.40;1.20;;;13.90;99.90;;;;;;5047673;28;20436;-68
2022/07/01 03:22:20;;;;;;;2.50;1.20;;;14.00;99.90;;;;;;5048499;28;20486;-68
2022/07/01 03:24:47;;;;;;;5.23;1.67;;;14.00;99.90;;;;;;5051803;28;20450;-69
2022/07/01 03:27:14;;;;;;;2.43;1.30;;;14.00;99.90;;;;;;5051810;28;20435;-70
2022/07/01 03:29:41;;;;;;;2.83;1.50;;;14.00;99.90;;;;;;5051861;28;20534;-70
2022/07/01 03:32:09;;;;;;;5.40;1.30;;;14.10;99.90;;;;;;5051454;28;20480;-69
2022/07/01 03:34:36;;;;;;;2.97;1.40;;;14.00;99.90;;;;;;5050802;28;20537;-69
2022/07/01 03:37:05;;;;;;;2.40;1.27;;;14.00;99.90;;;;;;5051380;28;20946;-69
2022/07/01 03:39:31;;;;;;;15.43;2.80;;;14.00;99.90;;;;;;5051724;28;20454;-68
2022/07/01 03:41:58;;;;;;;2.20;1.30;;;14.00;99.90;;;;;;5051470;28;20809;-69
2022/07/01 03:44:25;;;;;;;3.80;1.60;;;14.10;99.90;;;;;;5051413;28;20466;-69
2022/07/01 03:46:52;;;;;;;2.47;1.70;;;14.10;99.90;;;;;;5051464;28;20518;-70
2022/07/01 03:49:19;;;;;;;3.23;1.53;;;14.10;99.90;;;;;;5051315;28;20440;-69
2022/07/01 03:51:46;;;;;;;2.20;1.40;;;14.00;99.90;;;;;;5050883;28;20480;-70
2022/07/01 03:56:58;;;;;;;2.10;1.47;;;14.10;99.90;;;;;;5050876;28;20515;-69
2022/07/01 03:59:26;;;;;;;2.03;1.60;;;14.00;99.90;;;;;;5051126;28;20432;-69
2022/07/01 04:01:52;;;;;;;4.33;2.17;;;14.00;99.90;;;;;;5050962;28;20432;-69
2022/07/01 04:04:19;;;;;;;4.63;1.63;;;14.10;99.90;;;;;;5050756;28;20460;-68
2022/07/01 04:06:47;;;;;;;2.90;1.63;;;14.10;99.90;;;;;;5051135;28;20462;-69
2022/07/01 04:09:17;;;;;;;3.03;1.70;;;14.10;99.90;;;;;;5051075;28;20446;-69
2022/07/01 04:11:45;;;;;;;2.83;1.87;;;14.10;99.90;;;;;;5050548;28;21005;-68
2022/07/01 04:14:12;;;;;;;3.40;1.70;;;14.10;99.90;;;;;;5051056;28;20472;-68
2022/07/01 04:16:40;;;;;;;2.60;1.60;;;14.10;99.90;;;;;;5050793;28;20452;-68
2022/07/01 04:19:07;;;;;;;3.63;2.23;;;14.20;99.90;;;;;;5050655;28;20448;-67
2022/07/01 04:24:19;;;;;;;4.50;2.63;;;14.10;99.90;;;;;;5050344;28;20831;-68
2022/07/01 04:26:46;;;;;;;6.00;2.23;;;14.10;99.90;;;;;;5050467;28;20559;-70
2022/07/01 04:29:12;;;;;;;3.33;2.67;;;14.00;99.90;;;;;;5050570;28;20447;-70
2022/07/01 04:31:40;;;;;;;4.27;2.47;;;14.00;99.90;;;;;;5049879;28;20490;-68
2022/07/01 04:34:07;;;;;;;3.70;2.70;;;14.00;99.90;;;;;;5047831;28;20647;-70
2022/07/01 04:36:35;;;;;;;4.13;2.53;;;14.00;99.90;;;;;;5047131;28;20453;-69
2022/07/01 04:39:02;;;;;;;3.90;2.80;;;14.00;99.90;;;;;;5046069;28;20452;-69
2022/07/01 04:44:15;;;;;;;4.23;2.67;;;14.00;99.90;;;;;;5050437;28;20482;-68
2022/07/01 04:46:42;;;;;;;3.60;2.43;;;13.90;99.90;;;;;;5050459;28;20465;-70
2022/07/01 04:49:09;;;;;;;3.43;2.80;;;13.90;99.90;;;;;;5050273;28;20447;-68
2022/07/01 04:51:36;;;;;;;4.17;2.70;;;13.90;99.90;;;;;;5050067;28;20826;-70
2022/07/01 04:54:03;;;;;;;3.67;2.90;;;13.90;99.90;;;;;;5050224;28;20464;-69
2022/07/01 04:56:31;;;;;;;3.13;2.50;;;13.90;99.90;;;;;;5050706;28;20456;-68
2022/07/01 04:58:58;;;;;;;3.83;2.70;;;13.90;99.90;;;;;;5050452;28;20880;-70
2022/07/01 05:01:25;;;;;;;4.93;3.20;;;14.00;99.90;;;;;;5049877;28;20475;-69
2022/07/01 05:03:52;;;;;;;3.87;2.83;;;14.00;99.90;;;;;;5049926;28;20495;-71
2022/07/01 05:06:19;;;;;;;5.63;2.67;;;14.10;99.90;;;;;;5050304;28;20531;-69
2022/07/01 05:08:46;;;;;;;3.33;2.70;;;14.00;99.90;;;;;;5050219;28;20490;-69
2022/07/01 05:11:13;;;;;;;6.80;3.00;;;14.00;99.90;;;;;;5047039;28;20448;-71
2022/07/01 05:13:41;;;;;;;3.50;3.03;;;14.00;99.90;;;;;;5040285;28;20481;-70
2022/07/01 05:16:09;;;;;;;4.97;2.97;;;14.00;99.90;;;;;;5030260;28;20497;-72
2022/07/01 05:24:07;;;;;;;4.17;2.63;;;14.10;99.90;;;;;;5029700;28;20443;-69
2022/07/01 05:26:34;;;;;;;3.67;2.70;;;14.10;99.90;;;;;;5028864;28;20985;-69
2022/07/01 05:29:02;;;;;;;3.83;2.40;;;14.00;99.90;;;;;;5029572;28;20459;-70
2022/07/01 05:31:29;;;;;;;3.03;2.60;;;14.00;99.90;;;;;;5029202;28;20535;-70
2022/07/01 05:33:56;;;;;;;4.37;3.47;;;13.90;99.90;;;;;;5029637;28;21002;-70
2022/07/01 05:36:23;;;;;;;3.03;2.33;;;13.90;99.90;;;;;;5029918;28;20455;-72
2022/07/01 05:38:49;;;;;;;6.00;3.17;;;13.90;99.90;;;;;;5029691;28;20445;-71
2022/07/01 05:41:17;;;;;;;4.50;3.77;;;13.80;99.90;;;;;;5029332;28;20449;-70
2022/07/01 05:43:43;;;;;;;6.17;3.87;;;13.80;99.90;;;;;;5029481;28;20473;-71
2022/07/01 05:46:11;;;;;;;4.57;3.63;;;13.80;99.90;;;;;;5029503;28;20445;-70
2022/07/01 05:48:38;;;;;;;4.13;3.70;;;14.00;99.90;;;;;;5029171;28;20448;-70
2022/07/01 05:51:05;;;;;;;5.07;3.60;;;14.00;99.90;;;;;;5029356;28;20823;-71
2022/07/01 05:53:32;;;;;;;6.60;4.37;;;13.90;99.90;;;;;;5029225;28;20485;-71
2022/07/01 05:55:59;;;;;;;6.43;3.43;;;14.10;99.90;;;;;;5029504;28;20476;-70
2022/07/01 05:58:25;;;;;;;5.80;4.07;;;14.20;99.90;;;;;;5030546;28;20453;-70
2022/07/01 06:00:52;;;;;;;18.30;5.33;;;14.40;99.90;;;;;;5033087;28;20459;-72
2022/07/01 06:03:20;;;;;;;23.60;5.60;;;14.50;99.90;;;;;;5033388;28;20468;-70
2022/07/01 06:05:47;;;;;;;5.60;3.83;;;14.60;99.90;;;;;;5033233;28;20445;-69
2022/07/01 06:08:14;;;;;;;5.60;3.83;;;14.50;99.90;;;;;;5033175;28;20467;-70
2022/07/01 06:10:40;;;;;;;4.50;2.63;;;14.50;99.90;;;;;;5032748;28;20449;-69
2022/07/01 06:13:07;;;;;;;4.50;2.80;;;14.40;99.90;;;;;;5033128;28;20506;-70
2022/07/01 06:15:34;;;;;;;3.60;2.77;;;14.40;99.90;;;;;;5032935;28;20484;-69
2022/07/01 06:18:01;;;;;;;4.60;2.70;;;14.40;99.90;;;;;;5033267;28;20457;-70
2022/07/01 06:20:30;;;;;;;3.90;2.67;;;14.20;99.90;;;;;;5032610;28;20452;-70
2022/07/01 06:22:57;;;;;;;5.10;3.20;;;14.20;99.90;;;;;;5033125;28;20461;-70
2022/07/01 06:25:24;;;;;;;4.33;3.10;;;14.20;99.90;;;;;;5032996;28;20448;-70
2022/07/01 06:27:51;;;;;;;5.77;3.17;;;14.20;99.90;;;;;;5033169;28;20463;-70
2022/07/01 06:30:18;;;;;;;3.37;2.57;;;14.20;99.90;;;;;;5032570;28;20449;-70
2022/07/01 06:32:45;;;;;;;4.90;2.83;;;14.20;99.90;;;;;;5033064;28;20495;-70
2022/07/01 06:35:11;;;;;;;3.70;2.70;;;14.40;99.90;;;;;;5033050;28;20455;-70
2022/07/01 06:37:39;;;;;;;3.03;2.33;;;14.40;99.90;;;;;;5032590;28;20448;-71
2022/07/01 06:40:07;;;;;;;5.73;2.73;;;14.40;99.90;;;;;;5032520;28;20453;-71
2022/07/01 06:42:35;;;;;;;5.00;2.47;;;14.50;99.90;;;;;;5032436;28;20447;-69
2022/07/01 06:45:02;;;;;;;3.90;2.37;;;14.50;99.90;;;;;;5032700;28;20471;-69
2022/07/01 06:47:29;;;;;;;4.50;2.50;;;14.50;99.90;;;;;;5032623;28;20452;-71
2022/07/01 06:49:56;;;;;;;3.80;2.57;;;14.50;99.90;;;;;;5032380;28;20457;-67
2022/07/01 06:52:23;;;;;;;3.60;2.50;;;14.40;99.90;;;;;;5032200;28;20488;-70
2022/07/01 06:54:51;;;;;;;2.97;2.10;;;14.40;99.90;;;;;;5032443;28;20459;-68
2022/07/01 06:57:18;;;;;;;3.20;2.07;;;14.40;99.90;;;;;;5032198;28;20456;-70
2022/07/01 06:59:45;;;;;;;4.93;2.30;;;14.40;99.90;;;;;;5032325;28;20457;-71
2022/07/01 07:02:11;;;;;;;3.50;2.37;;;14.40;99.90;;;;;;5032044;28;20448;-70
2022/07/01 07:04:38;;;;;;;4.00;2.50;;;14.50;99.90;;;;;;5058854;23;20485;-72
2022/07/01 07:07:05;;;;;;;4.00;2.70;;;14.60;99.90;;;;;;5089011;28;20546;-70
2022/07/01 07:09:32;;;;;;;2.80;2.10;;;14.70;99.90;;;;;;5076099;28;20458;-72
2022/07/01 07:12:00;;;;;;;3.77;3.17;;;14.80;99.90;;;;;;5075937;28;20439;-72
2022/07/01 07:14:27;;;;;;;3.83;2.67;;;14.90;99.90;;;;;;5076119;28;20442;-72
2022/07/01 07:16:55;;;;;;;3.23;2.23;;;14.90;99.90;;;;;;5075331;28;20536;-71
2022/07/01 07:19:22;;;;;;;9.37;2.70;;;14.80;99.90;;;;;;5075592;28;20549;-70
2022/07/01 07:21:49;;;;;;;3.63;2.50;;;14.70;99.90;;;;;;5075026;28;20478;-72
2022/07/01 07:24:15;;;;;;;3.60;2.30;;;14.70;99.90;;;;;;5076293;28;20431;-70
2022/07/01 07:26:42;;;;;;;4.47;3.00;;;14.70;99.90;;;;;;5076620;28;21026;-71
2022/07/01 07:29:11;;;;;;;3.13;2.20;;;14.80;99.90;;;;;;5074278;28;20554;-72
2022/07/01 07:31:37;;;;;;;4.60;2.63;;;14.80;99.90;;;;;;5073424;28;20514;-72
2022/07/01 07:34:04;;;;;;;5.20;2.53;;;14.80;99.90;;;;;;5074099;28;20578;-71
2022/07/01 07:36:32;;;;;;;4.00;2.57;;;15.00;99.90;;;;;;5073678;28;20531;-71
2022/07/01 07:38:59;;;;;;;2.80;1.90;;;15.00;99.90;;;;;;5073186;28;20481;-72
2022/07/01 07:41:26;;;;;;;2.77;1.90;;;14.90;99.90;;;;;;5072553;28;20455;-72
2022/07/01 07:43:53;;;;;;;3.50;2.40;;;14.80;99.90;;;;;;5072255;28;20443;-71
2022/07/01 07:46:21;;;;;;;4.27;2.83;;;14.80;99.90;;;;;;5072225;28;20485;-72
2022/07/01 07:48:48;;;;;;;4.60;2.67;;;14.80;99.90;;;;;;5072694;28;20546;-72
2022/07/01 07:51:17;;;;;;;4.00;2.90;;;14.90;99.90;;;;;;5072480;28;20947;-70
2022/07/01 07:53:44;;;;;;;4.57;2.27;;;15.00;99.90;;;;;;5072849;28;20471;-72
2022/07/01 07:56:11;;;;;;;3.00;2.27;;;15.10;99.90;;;;;;5072398;28;20458;-71
2022/07/01 07:58:41;;;;;;;3.70;2.30;;;15.00;99.90;;;;;;5072492;28;20833;-72
2022/07/01 08:01:08;;;;;;;3.60;2.50;;;15.00;99.90;;;;;;5071695;28;20445;-72
2022/07/01 08:03:37;;;;;;;3.03;2.40;;;14.90;99.90;;;;;;5071737;28;20193;-71
2022/07/01 08:06:04;;;;;;;3.93;2.60;;;14.90;99.90;;;;;;5071826;28;20541;-71
2022/07/01 08:08:31;;;;;;;3.17;2.10;;;14.70;99.90;;;;;;5072053;28;20470;-72
2022/07/01 08:10:57;;;;;;;3.23;2.60;;;14.60;99.90;;;;;;5071747;28;20451;-72
2022/07/01 08:13:24;;;;;;;2.70;2.23;;;14.50;99.90;;;;;;5071943;28;20471;-72
2022/07/01 08:15:51;;;;;;;3.30;3.00;;;14.40;99.90;;;;;;5072568;28;20503;-71
2022/07/01 08:18:18;;;;;;;3.90;2.80;;;14.40;99.90;;;;;;5071425;28;20466;-71
2022/07/01 08:20:46;;;;;;;4.83;3.17;;;14.40;99.90;;;;;;5070741;28;20451;-72
2022/07/01 08:23:13;;;;;;;4.53;2.67;;;14.40;99.90;;;;;;5071363;28;20439;-71
2022/07/01 08:25:40;;;;;;;3.90;2.90;;;14.40;99.90;;;;;;5071351;28;20479;-70
2022/07/01 08:28:07;;;;;;;7.03;3.57;;;14.40;99.90;;;;;;5071514;28;20471;-72
2022/07/01 08:30:34;;;;;;;4.37;3.33;;;14.50;99.90;;;;;;5070945;28;20950;-72
2022/07/01 08:33:01;;;;;;;3.33;2.43;;;14.60;99.90;;;;;;5071406;28;21081;-71
2022/07/01 08:35:28;;;;;;;3.53;3.00;;;14.70;99.90;;;;;;5071495;28;20530;-71
2022/07/01 08:37:57;;;;;;;4.60;3.50;;;14.70;99.90;;;;;;5071053;28;20554;-71
2022/07/01 08:40:26;;;;;;;3.60;3.30;;;14.80;99.90;;;;;;5070769;28;20564;-70
2022/07/01 08:42:57;;;;;;;4.27;3.10;;;14.90;99.90;;;;;;5070939;28;20443;-71
2022/07/01 08:45:26;;;;;;;4.87;3.10;;;15.00;99.90;;;;;;5071252;28;20454;-70
2022/07/01 08:47:57;;;;;;;5.03;3.20;;;15.00;99.90;;;;;;5070831;28;20499;-71
2022/07/01 08:50:24;;;;;;;4.43;2.90;;;14.90;99.90;;;;;;5070181;28;20443;-71
2022/07/01 08:52:51;;;;;;;3.40;3.10;;;14.90;99.90;;;;;;5070776;28;20529;-70
2022/07/01 08:55:19;;;;;;;4.20;3.20;;;14.90;99.90;;;;;;5071159;28;20447;-69
2022/07/01 08:57:46;;;;;;;4.97;2.83;;;14.90;99.90;;;;;;5070787;28;20465;-71
2022/07/01 09:00:14;;;;;;;6.53;3.40;;;14.90;99.90;;;;;;5070451;28;20613;-70
2022/07/01 09:02:52;;;;;;;4.63;3.60;;;14.90;99.90;;;;;;5070687;28;20445;-71
2022/07/01 09:05:19;;;;;;;4.17;3.60;;;14.90;99.90;;;;;;5071129;28;20943;-71
2022/07/01 09:07:47;;;;;;;5.40;3.90;;;15.00;99.90;;;;;;5071726;28;20836;-71
2022/07/01 09:10:17;;;;;;;4.23;3.83;;;14.90;99.90;;;;;;5072828;28;20485;-71
2022/07/01 09:12:46;;;;;;;5.40;4.30;;;14.90;99.90;;;;;;5073013;28;20542;-71
2022/07/01 09:15:26;;;;;;;4.70;3.70;;;14.90;99.90;;;;;;5073883;28;20449;-70
2022/07/01 09:17:55;;;;;;;6.87;4.53;;;15.00;99.90;;;;;;5073118;28;21018;-71
2022/07/01 09:20:28;;;;;;;5.53;3.50;;;14.90;99.90;;;;;;5073094;28;20449;-72
2022/07/01 09:23:02;;;;;;;6.13;4.40;;;15.00;99.90;;;;;;5072768;28;20449;-72
2022/07/01 09:25:30;;;;;;;4.03;3.67;;;14.90;99.90;;;;;;5072695;28;20526;-72
2022/07/01 09:28:12;;;;;;;11.43;4.83;;;14.90;99.90;;;;;;5072225;28;20503;-72
2022/07/01 09:30:40;;;;;;;11.33;4.40;;;14.80;99.90;;;;;;5070045;28;20472;-70
2022/07/01 09:33:18;;;;;;;5.20;3.50;;;14.50;99.90;;;;;;5071841;28;20573;-71
2022/07/01 09:35:46;;;;;;;6.40;4.40;;;14.50;99.90;;;;;;5067114;28;20462;-71
2022/07/01 09:38:15;;;;;;;5.43;4.23;;;14.70;99.90;;;;;;5071595;28;21058;-72
2022/07/01 09:40:50;;;;;;;6.53;4.00;;;14.80;99.90;;;;;;5070988;28;20510;-72
2022/07/01 09:43:20;;;;;;;3.23;2.23;;;14.80;99.90;;;;;;5071924;28;20545;-69
2022/07/01 09:45:51;;;;;;;5.40;3.03;;;14.70;99.90;;;;;;5071798;28;20546;-71
2022/07/01 09:48:19;;;;;;;3.47;2.97;;;14.50;99.90;;;;;;5072259;28;20471;-71
2022/07/01 09:50:46;;;;;;;5.00;2.70;;;14.50;99.90;;;;;;5071914;28;20531;-70
2022/07/01 09:53:13;;;;;;;4.30;2.47;;;14.40;99.90;;;;;;5070609;28;20561;-69
2022/07/01 09:55:40;;;;;;;3.13;2.57;;;14.40;99.90;;;;;;5067952;28;20440;-72
2022/07/01 09:58:07;;;;;;;4.03;2.97;;;14.40;99.90;;;;;;5074730;28;20474;-71
2022/07/01 10:00:36;;;;;;;5.23;2.70;;;14.50;99.90;;;;;;5072499;28;20451;-71
2022/07/01 10:03:05;;;;;;;4.97;2.70;;;14.60;99.90;;;;;;5065866;28;20460;-71
2022/07/01 10:05:38;;;;;;;4.40;2.73;;;14.70;99.90;;;;;;5058739;28;20490;-70
2022/07/01 10:08:31;;;;;;;4.00;2.87;;;14.70;99.90;;;;;;5067146;28;20565;-71
2022/07/01 10:11:12;;;;;;;4.30;2.97;;;14.70;99.90;;;;;;5077789;28;20884;-72
2022/07/01 10:13:41;;;;;;;4.70;3.10;;;15.00;99.90;;;;;;5064432;28;21033;-71
2022/07/01 10:16:09;;;;;;;3.80;2.27;;;15.30;99.90;;;;;;5063442;28;20505;-71
2022/07/01 10:18:37;;;;;;;4.37;2.40;;;15.40;99.90;;;;;;5067345;28;20568;-69
2022/07/01 10:21:05;;;;;;;2.90;2.13;;;15.60;99.90;;;;;;5065361;28;20959;-70
2022/07/01 10:23:39;;;;;;;2.70;2.00;;;15.70;99.90;;;;;;5070328;28;20439;-71
2022/07/01 10:26:07;;;;;;;3.60;2.80;;;15.80;99.90;;;;;;5070973;28;20497;-71
2022/07/01 10:28:45;;;;;;;2.50;2.10;;;16.10;99.90;;;;;;5065246;28;20470;-71
2022/07/01 10:31:16;;;;;;;2.90;2.23;;;16.40;99.90;;;;;;5071072;28;20451;-71
2022/07/01 10:33:46;;;;;;;4.20;2.03;;;16.90;99.90;;;;;;5064905;28;20486;-69
2022/07/01 10:36:27;;;;;;;2.33;1.37;;;17.20;99.90;;;;;;5069888;28;20443;-69
2022/07/01 10:39:22;;;;;;;4.10;1.80;;;17.30;99.90;;;;;;5070011;28;20467;-71
2022/07/01 10:42:01;;;;;;;2.83;1.60;;;17.60;99.90;;;;;;5067986;28;20486;-70
2022/07/01 10:44:29;;;;;;;2.00;1.40;;;18.20;99.90;;;;;;5067325;28;20928;-71
2022/07/01 10:47:04;;;;;;;2.90;1.80;;;18.30;99.90;;;;;;5076547;28;20511;-71
2022/07/01 10:49:57;;;;;;;3.00;1.43;;;18.50;99.90;;;;;;5092474;28;20442;-71
2022/07/01 10:52:25;;;;;;;4.00;1.50;;;18.60;99.90;;;;;;5072944;28;20469;-71
2022/07/01 10:54:56;;;;;;;2.60;1.60;;;18.80;99.90;;;;;;5074121;28;20573;-70
2022/07/01 10:57:29;;;;;;;3.00;1.70;;;18.80;99.90;;;;;;5079789;28;20625;-70
2022/07/01 10:59:57;;;;;;;3.10;1.77;;;18.90;99.90;;;;;;5071743;28;20521;-70
2022/07/01 11:02:27;;;;;;;3.10;1.77;;;18.90;99.90;;;;;;5068553;28;20457;-71
2022/07/01 11:04:57;;;;;;;3.40;2.53;;;19.10;99.90;;;;;;5088277;28;20533;-71
2022/07/01 11:07:26;;;;;;;2.60;1.40;;;19.30;99.90;;;;;;5079695;28;20462;-70
2022/07/01 11:09:53;;;;;;;2.67;1.40;;;19.60;99.90;;;;;;5074642;28;20446;-71
2022/07/01 11:12:21;;;;;;;2.87;1.53;;;20.50;99.90;;;;;;5087740;28;20455;-70
2022/07/01 11:14:48;;;;;;;3.47;1.90;;;21.00;99.90;;;;;;5073085;28;20483;-71
2022/07/01 11:17:15;;;;;;;2.87;1.33;;;21.20;99.90;;;;;;5072379;28;20453;-72
2022/07/01 11:19:49;;;;;;;2.93;1.83;;;21.10;99.90;;;;;;5071923;28;20530;-70
2022/07/01 11:22:19;;;;;;;2.63;1.40;;;20.50;99.90;;;;;;5065459;28;20458;-72
2022/07/01 11:24:46;;;;;;;3.80;1.50;;;20.10;99.90;;;;;;5077046;28;20442;-70
2022/07/01 11:27:13;;;;;;;2.20;1.50;;;19.90;99.90;;;;;;5080050;28;20490;-68
2022/07/01 11:29:40;;;;;;;1.90;1.00;;;20.40;99.90;;;;;;5077320;28;20454;-70
2022/07/01 11:32:07;;;;;;;2.23;1.47;;;20.80;99.90;;;;;;5085823;28;20478;-70
2022/07/01 11:34:37;;;;;;;4.17;1.67;;;20.80;99.90;;;;;;5079027;28;20570;-70
2022/07/01 11:40:06;;;;;;;2.80;1.60;;;20.80;99.90;;;;;;5077778;28;20793;-70
2022/07/01 11:42:33;;;;;;;2.70;1.33;;;21.00;99.90;;;;;;5078375;28;20454;-71
2022/07/01 11:45:00;;;;;;;1.93;1.20;;;21.00;99.90;;;;;;5068580;28;20454;-69
2022/07/01 11:47:29;;;;;;;3.43;1.50;;;21.20;99.90;;;;;;5069953;28;20864;-71
2022/07/01 11:49:57;;;;;;;3.90;1.50;;;21.30;99.90;;;;;;5068341;28;20443;-70
2022/07/01 11:52:26;;;;;;;2.53;1.20;;;21.50;99.90;;;;;;5071874;28;20461;-68
2022/07/01 11:54:54;;;;;;;2.90;1.60;;;21.80;99.90;;;;;;5082347;28;20840;-72
2022/07/01 11:57:23;;;;;;;3.90;1.20;;;22.90;99.90;;;;;;5078727;28;20490;-72
2022/07/01 11:59:51;;;;;;;2.60;1.20;;;24.30;99.90;;;;;;5074958;28;20435;-71
2022/07/01 12:02:21;;;;;;;2.20;1.40;;;25.10;99.90;;;;;;5073148;28;20450;-71
2022/07/01 12:04:48;;;;;;;3.10;1.27;;;24.30;99.90;;;;;;5072363;28;20439;-71
2022/07/01 12:07:17;;;;;;;2.40;1.30;;;23.50;99.90;;;;;;5077977;28;20478;-71
2022/07/01 12:09:46;;;;;;;3.00;1.30;;;22.10;99.90;;;;;;5072014;28;20948;-71
2022/07/01 12:12:17;;;;;;;3.10;1.50;;;21.20;99.90;;;;;;5071773;28;20549;-70
2022/07/01 12:14:51;;;;;;;3.63;1.67;;;20.60;99.90;;;;;;5071747;28;20475;-72
2022/07/01 12:17:18;;;;;;;3.17;1.90;;;20.20;99.90;;;;;;5071411;28;20461;-72
2022/07/01 12:19:47;;;;;;;3.13;2.00;;;19.50;99.90;;;;;;5072427;28;20798;-70
2022/07/01 12:22:18;;;;;;;3.40;1.80;;;18.90;99.90;;;;;;5071021;28;20945;-71
2022/07/01 12:24:46;;;;;;;2.90;2.00;;;18.40;99.90;;;;;;5073409;28;20561;-71
2022/07/01 12:27:13;;;;;;;2.30;1.60;;;18.10;99.90;;;;;;5081180;28;20870;-70
2022/07/01 12:29:52;;;;;;;2.57;1.50;;;18.20;99.90;;;;;;5086402;28;20442;-71
2022/07/01 12:32:23;;;;;;;2.37;1.43;;;18.30;99.90;;;;;;5070534;28;20504;-71
2022/07/01 12:34:52;;;;;;;2.03;1.40;;;18.70;99.90;;;;;;5070092;28;20475;-71
2022/07/01 12:37:21;;;;;;;3.03;1.40;;;19.50;99.90;;;;;;5076867;28;20531;-72
2022/07/01 12:39:52;;;;;;;2.23;1.20;;;20.40;99.90;;;;;;5070763;28;20454;-71
2022/07/01 12:42:24;;;;;;;3.03;1.50;;;21.00;99.90;;;;;;5072413;28;20461;-72
2022/07/01 12:44:54;;;;;;;3.33;1.50;;;21.80;99.90;;;;;;5065849;28;20517;-71
2022/07/01 12:47:22;;;;;;;4.03;1.30;;;22.70;99.90;;;;;;5070607;28;20471;-70
2022/07/01 12:49:49;;;;;;;2.97;1.53;;;23.60;99.90;;;;;;5066978;28;20463;-72
2022/07/01 12:52:27;;;;;;;2.87;1.40;;;23.70;99.90;;;;;;5066987;28;20442;-72
2022/07/01 12:54:57;;;;;;;2.77;1.30;;;23.90;99.90;;;;;;5064282;28;20575;-72
2022/07/01 12:57:31;;;;;;;2.80;1.33;;;23.90;99.90;;;;;;5065321;28;20470;-72
2022/07/01 12:59:58;;;;;;;2.10;1.30;;;24.10;99.90;;;;;;5065959;28;20545;-72
2022/07/01 13:02:25;;;;;;;2.33;1.37;;;24.00;99.90;;;;;;5067597;28;20553;-72
2022/07/01 13:04:52;;;;;;;3.13;1.50;;;23.60;99.90;;;;;;5066777;28;20455;-71
2022/07/01 13:07:19;;;;;;;2.83;1.50;;;22.70;99.90;;;;;;5066360;28;20554;-69